sensor_id;sensor_type;location;lat;lon;timestamp;pressure;altitude;pressure_sealevel;temperature;humidity
65800;BME280;52544;48.116;11.660;2023-03-26T00:01:53;95194.47;;;7.78;73.28
65800;BME280;52544;48.116;11.660;2023-03-26T00:04:18;95194.22;;;7.81;73.04
65800;BME280;52544;48.116;11.660;2023-03-26T00:06:46;95193.97;;;7.84;72.84
65800;BME280;52544;48.116;11.660;2023-03-26T00:09:14;95187.63;;;7.86;72.96
65800;BME280;52544;48.116;11.660;2023-03-26T00:11:41;95185.38;;;7.82;73.31
65800;BME280;52544;48.116;11.660;2023-03-26T00:14:07;95180.44;;;7.88;73.10
65800;BME280;52544;48.116;11.660;2023-03-26T00:16:33;95180.94;;;7.82;73.15
65800;BME280;52544;48.116;11.660;2023-03-26T00:19:00;95177.09;;;7.86;73.12
65800;BME280;52544;48.116;11.660;2023-03-26T00:21:27;95169.28;;;7.85;72.89
65800;BME280;52544;48.116;11.660;2023-03-26T00:23:59;95173.13;;;7.81;72.87
65800;BME280;52544;48.116;11.660;2023-03-26T00:26:27;95180.34;;;7.79;73.42
65800;BME280;52544;48.116;11.660;2023-03-26T00:28:55;95173.50;;;7.87;72.91
65800;BME280;52544;48.116;11.660;2023-03-26T00:31:22;95180.81;;;7.84;72.89
65800;BME280;52544;48.116;11.660;2023-03-26T00:33:49;95183.56;;;7.82;72.82
65800;BME280;52544;48.116;11.660;2023-03-26T00:36:18;95177.94;;;7.75;73.35
65800;BME280;52544;48.116;11.660;2023-03-26T00:38:45;95177.63;;;7.69;73.59
65800;BME280;52544;48.116;11.660;2023-03-26T00:41:14;95171.63;;;7.67;73.91
65800;BME280;52544;48.116;11.660;2023-03-26T00:43:47;95168.47;;;7.73;73.87
65800;BME280;52544;48.116;11.660;2023-03-26T00:46:14;95167.31;;;7.66;73.79
65800;BME280;52544;48.116;11.660;2023-03-26T00:48:40;95164.09;;;7.62;74.25
65800;BME280;52544;48.116;11.660;2023-03-26T00:51:09;95162.44;;;7.61;74.23
65800;BME280;52544;48.116;11.660;2023-03-26T00:53:35;95160.72;;;7.60;74.34
65800;BME280;52544;48.116;11.660;2023-03-26T00:56:05;95154.63;;;7.60;74.43
65800;BME280;52544;48.116;11.660;2023-03-26T00:58:31;95158.81;;;7.62;74.18
65800;BME280;52544;48.116;11.660;2023-03-26T01:01:00;95146.34;;;7.64;74.20
65800;BME280;52544;48.116;11.660;2023-03-26T01:03:28;95155.00;;;7.66;73.70
65800;BME280;52544;48.116;11.660;2023-03-26T01:05:59;95163.25;;;7.62;73.91
65800;BME280;52544;48.116;11.660;2023-03-26T01:08:41;95151.16;;;7.59;74.08
65800;BME280;52544;48.116;11.660;2023-03-26T01:13:46;95157.63;;;7.55;73.76
65800;BME280;52544;48.116;11.660;2023-03-26T01:22:17;95162.66;;;7.58;74.54
65800;BME280;52544;48.116;11.660;2023-03-26T01:24:43;95158.13;;;7.49;74.75
65800;BME280;52544;48.116;11.660;2023-03-26T01:30:15;95168.56;;;7.39;75.86
65800;BME280;52544;48.116;11.660;2023-03-26T01:32:50;95156.84;;;7.32;76.15
65800;BME280;52544;48.116;11.660;2023-03-26T01:38:12;95148.13;;;7.32;76.77
65800;BME280;52544;48.116;11.660;2023-03-26T01:40:46;95151.72;;;7.31;76.66
65800;BME280;52544;48.116;11.660;2023-03-26T01:45:51;95140.22;;;7.20;77.25
65800;BME280;52544;48.116;11.660;2023-03-26T01:48:17;95142.63;;;7.12;77.81
65800;BME280;52544;48.116;11.660;2023-03-26T01:50:42;95138.31;;;7.11;78.28
65800;BME280;52544;48.116;11.660;2023-03-26T01:53:10;95136.41;;;7.13;78.21
65800;BME280;52544;48.116;11.660;2023-03-26T01:55:57;95137.34;;;7.12;78.42
65800;BME280;52544;48.116;11.660;2023-03-26T01:59:00;95133.91;;;7.12;78.58
65800;BME280;52544;48.116;11.660;2023-03-26T02:04:37;95131.41;;;7.10;78.61
65800;BME280;52544;48.116;11.660;2023-03-26T02:07:14;95125.16;;;7.00;79.15
65800;BME280;52544;48.116;11.660;2023-03-26T02:09:48;95121.34;;;7.04;79.23
65800;BME280;52544;48.116;11.660;2023-03-26T02:12:15;95128.16;;;6.95;79.68
65800;BME280;52544;48.116;11.660;2023-03-26T02:14:43;95123.13;;;6.92;80.15
65800;BME280;52544;48.116;11.660;2023-03-26T02:17:09;95115.03;;;6.84;80.47
65800;BME280;52544;48.116;11.660;2023-03-26T02:19:36;95111.66;;;6.82;80.69
65800;BME280;52544;48.116;11.660;2023-03-26T02:22:09;95110.84;;;6.82;80.64
65800;BME280;52544;48.116;11.660;2023-03-26T02:24:38;95112.50;;;6.83;80.85
65800;BME280;52544;48.116;11.660;2023-03-26T02:27:04;95106.66;;;6.90;80.63
65800;BME280;52544;48.116;11.660;2023-03-26T02:29:34;95115.38;;;6.91;80.29
65800;BME280;52544;48.116;11.660;2023-03-26T02:32:03;95103.97;;;7.13;79.16
65800;BME280;52544;48.116;11.660;2023-03-26T02:34:29;95100.75;;;7.09;79.36
65800;BME280;52544;48.116;11.660;2023-03-26T02:36:55;95098.63;;;7.03;79.56
65800;BME280;52544;48.116;11.660;2023-03-26T02:39:22;95096.47;;;7.08;79.61
65800;BME280;52544;48.116;11.660;2023-03-26T02:41:47;95093.22;;;7.05;79.43
65800;BME280;52544;48.116;11.660;2023-03-26T02:44:12;95095.03;;;7.04;79.53
65800;BME280;52544;48.116;11.660;2023-03-26T02:46:38;95090.50;;;7.06;79.66
65800;BME280;52544;48.116;11.660;2023-03-26T02:49:03;95081.88;;;7.04;79.91
65800;BME280;52544;48.116;11.660;2023-03-26T02:51:29;95083.56;;;7.05;79.81
65800;BME280;52544;48.116;11.660;2023-03-26T02:53:59;95079.97;;;7.06;79.90
65800;BME280;52544;48.116;11.660;2023-03-26T02:56:25;95084.50;;;7.04;79.75
65800;BME280;52544;48.116;11.660;2023-03-26T02:58:50;95081.78;;;7.06;80.05
65800;BME280;52544;48.116;11.660;2023-03-26T03:01:16;95073.50;;;7.10;79.72
65800;BME280;52544;48.116;11.660;2023-03-26T03:03:42;95071.13;;;7.07;79.82
65800;BME280;52544;48.116;11.660;2023-03-26T03:06:07;95073.50;;;7.10;79.42
65800;BME280;52544;48.116;11.660;2023-03-26T03:08:33;95067.88;;;7.04;80.00
65800;BME280;52544;48.116;11.660;2023-03-26T03:11:09;95060.97;;;7.03;80.38
65800;BME280;52544;48.116;11.660;2023-03-26T03:13:35;95047.66;;;7.04;80.00
65800;BME280;52544;48.116;11.660;2023-03-26T03:16:00;95053.75;;;7.05;80.27
65800;BME280;52544;48.116;11.660;2023-03-26T03:18:26;95046.84;;;7.04;80.28
65800;BME280;52544;48.116;11.660;2023-03-26T03:20:51;95043.38;;;6.92;81.28
65800;BME280;52544;48.116;11.660;2023-03-26T03:23:18;95035.16;;;6.85;81.87
65800;BME280;52544;48.116;11.660;2023-03-26T03:25:44;95034.69;;;6.80;81.93
65800;BME280;52544;48.116;11.660;2023-03-26T03:28:09;95030.00;;;6.84;81.84
65800;BME280;52544;48.116;11.660;2023-03-26T03:30:35;95036.13;;;6.84;81.42
65800;BME280;52544;48.116;11.660;2023-03-26T03:33:01;95027.59;;;6.92;81.17
65800;BME280;52544;48.116;11.660;2023-03-26T03:35:28;95030.97;;;6.94;80.92
65800;BME280;52544;48.116;11.660;2023-03-26T03:37:55;95026.41;;;6.96;80.82
65800;BME280;52544;48.116;11.660;2023-03-26T03:40:20;95024.88;;;6.93;81.17
65800;BME280;52544;48.116;11.660;2023-03-26T03:42:46;95020.44;;;6.94;81.29
65800;BME280;52544;48.116;11.660;2023-03-26T03:45:11;95017.56;;;6.97;80.92
65800;BME280;52544;48.116;11.660;2023-03-26T03:47:37;95030.22;;;6.92;81.16
65800;BME280;52544;48.116;11.660;2023-03-26T03:50:03;95014.72;;;6.89;81.63
65800;BME280;52544;48.116;11.660;2023-03-26T03:52:29;95022.09;;;6.95;81.09
65800;BME280;52544;48.116;11.660;2023-03-26T03:54:55;95016.38;;;7.01;81.32
65800;BME280;52544;48.116;11.660;2023-03-26T03:57:25;95028.66;;;7.00;80.98
65800;BME280;52544;48.116;11.660;2023-03-26T03:59:50;95023.53;;;6.99;81.27
65800;BME280;52544;48.116;11.660;2023-03-26T04:02:16;95014.06;;;7.08;81.09
65800;BME280;52544;48.116;11.660;2023-03-26T04:04:51;95019.94;;;7.00;81.75
65800;BME280;52544;48.116;11.660;2023-03-26T04:07:16;95016.13;;;6.93;82.19
65800;BME280;52544;48.116;11.660;2023-03-26T04:09:42;95014.22;;;6.95;81.91
65800;BME280;52544;48.116;11.660;2023-03-26T04:12:07;95010.59;;;6.96;81.95
65800;BME280;52544;48.116;11.660;2023-03-26T04:14:33;94999.16;;;6.97;82.42
65800;BME280;52544;48.116;11.660;2023-03-26T04:16:58;95006.06;;;6.98;82.21
65800;BME280;52544;48.116;11.660;2023-03-26T04:19:23;94997.47;;;6.96;82.44
65800;BME280;52544;48.116;11.660;2023-03-26T04:21:51;95003.31;;;6.99;82.32
65800;BME280;52544;48.116;11.660;2023-03-26T04:24:16;94993.63;;;7.00;82.60
65800;BME280;52544;48.116;11.660;2023-03-26T04:26:42;94993.63;;;7.00;82.42
65800;BME280;52544;48.116;11.660;2023-03-26T04:29:08;94983.09;;;7.00;82.48
65800;BME280;52544;48.116;11.660;2023-03-26T04:31:37;94978.22;;;6.95;82.86
65800;BME280;52544;48.116;11.660;2023-03-26T04:34:08;94980.75;;;6.86;83.59
65800;BME280;52544;48.116;11.660;2023-03-26T04:36:38;94982.19;;;6.90;83.38
65800;BME280;52544;48.116;11.660;2023-03-26T04:39:09;94980.25;;;6.92;83.52
65800;BME280;52544;48.116;11.660;2023-03-26T04:41:35;94978.00;;;6.87;83.76
65800;BME280;52544;48.116;11.660;2023-03-26T04:44:01;94979.41;;;6.91;83.82
65800;BME280;52544;48.116;11.660;2023-03-26T04:46:27;94973.31;;;6.91;83.87
65800;BME280;52544;48.116;11.660;2023-03-26T04:48:53;94967.81;;;6.94;83.44
65800;BME280;52544;48.116;11.660;2023-03-26T04:51:23;94963.03;;;6.99;83.31
65800;BME280;52544;48.116;11.660;2023-03-26T04:53:52;94967.06;;;7.03;83.11
65800;BME280;52544;48.116;11.660;2023-03-26T04:59:10;94953.53;;;7.08;82.54
65800;BME280;52544;48.116;11.660;2023-03-26T05:01:38;94954.28;;;7.10;82.87
65800;BME280;52544;48.116;11.660;2023-03-26T05:04:04;94950.53;;;7.12;82.62
65800;BME280;52544;48.116;11.660;2023-03-26T05:06:30;94956.63;;;7.13;82.52
65800;BME280;52544;48.116;11.660;2023-03-26T05:08:59;94948.50;;;7.16;82.78
65800;BME280;52544;48.116;11.660;2023-03-26T05:11:26;94944.31;;;7.13;82.69
65800;BME280;52544;48.116;11.660;2023-03-26T05:13:52;94934.06;;;7.10;82.98
65800;BME280;52544;48.116;11.660;2023-03-26T05:16:17;94932.94;;;7.13;82.99
65800;BME280;52544;48.116;11.660;2023-03-26T05:18:43;94921.50;;;7.14;82.59
65800;BME280;52544;48.116;11.660;2023-03-26T05:21:08;94928.03;;;7.19;82.43
65800;BME280;52544;48.116;11.660;2023-03-26T05:23:35;94916.78;;;7.17;82.29
65800;BME280;52544;48.116;11.660;2023-03-26T05:26:00;94918.47;;;7.18;82.57
65800;BME280;52544;48.116;11.660;2023-03-26T05:28:26;94919.91;;;7.22;82.48
65800;BME280;52544;48.116;11.660;2023-03-26T05:30:52;94916.03;;;7.26;81.97
65800;BME280;52544;48.116;11.660;2023-03-26T05:33:19;94916.88;;;7.27;82.05
65800;BME280;52544;48.116;11.660;2023-03-26T05:35:45;94910.78;;;7.26;82.28
65800;BME280;52544;48.116;11.660;2023-03-26T05:38:11;94919.41;;;7.17;82.73
65800;BME280;52544;48.116;11.660;2023-03-26T05:40:36;94917.75;;;7.16;84.33
65800;BME280;52544;48.116;11.660;2023-03-26T05:43:02;94917.50;;;7.19;83.51
65800;BME280;52544;48.116;11.660;2023-03-26T05:45:28;94922.38;;;7.24;83.32
65800;BME280;52544;48.116;11.660;2023-03-26T05:47:54;94910.06;;;7.24;83.19
65800;BME280;52544;48.116;11.660;2023-03-26T05:50:21;94903.81;;;7.25;83.22
65800;BME280;52544;48.116;11.660;2023-03-26T05:52:46;94898.56;;;7.25;83.80
65800;BME280;52544;48.116;11.660;2023-03-26T05:55:11;94896.50;;;7.29;83.51
65800;BME280;52544;48.116;11.660;2023-03-26T05:57:38;94898.06;;;7.32;83.10
65800;BME280;52544;48.116;11.660;2023-03-26T06:00:05;94892.09;;;7.30;83.04
65800;BME280;52544;48.116;11.660;2023-03-26T06:02:33;94873.56;;;7.31;82.73
65800;BME280;52544;48.116;11.660;2023-03-26T06:04:59;94876.72;;;7.35;82.45
65800;BME280;52544;48.116;11.660;2023-03-26T06:07:25;94875.41;;;7.40;82.58
65800;BME280;52544;48.116;11.660;2023-03-26T06:09:51;94873.59;;;7.41;82.29
65800;BME280;52544;48.116;11.660;2023-03-26T06:12:17;94864.03;;;7.40;82.61
65800;BME280;52544;48.116;11.660;2023-03-26T06:14:42;94864.88;;;7.40;82.70
65800;BME280;52544;48.116;11.660;2023-03-26T06:17:09;94857.22;;;7.37;82.96
65800;BME280;52544;48.116;11.660;2023-03-26T06:19:34;94850.88;;;7.40;83.23
65800;BME280;52544;48.116;11.660;2023-03-26T06:22:00;94852.53;;;7.41;83.08
65800;BME280;52544;48.116;11.660;2023-03-26T06:24:25;94855.88;;;7.43;83.54
65800;BME280;52544;48.116;11.660;2023-03-26T06:26:51;94849.66;;;7.44;83.79
65800;BME280;52544;48.116;11.660;2023-03-26T06:29:17;94849.28;;;7.48;84.05
65800;BME280;52544;48.116;11.660;2023-03-26T06:31:42;94850.22;;;7.47;83.89
65800;BME280;52544;48.116;11.660;2023-03-26T06:34:08;94854.66;;;7.47;83.94
65800;BME280;52544;48.116;11.660;2023-03-26T06:36:33;94844.13;;;7.47;84.06
65800;BME280;52544;48.116;11.660;2023-03-26T06:38:59;94852.19;;;7.55;84.31
65800;BME280;52544;48.116;11.660;2023-03-26T06:41:25;94846.69;;;7.58;83.80
65800;BME280;52544;48.116;11.660;2023-03-26T06:43:50;94840.88;;;7.64;83.00
65800;BME280;52544;48.116;11.660;2023-03-26T06:46:16;94826.63;;;7.67;82.59
65800;BME280;52544;48.116;11.660;2023-03-26T06:48:41;94830.09;;;7.67;83.07
65800;BME280;52544;48.116;11.660;2023-03-26T06:51:08;94835.53;;;7.75;82.14
65800;BME280;52544;48.116;11.660;2023-03-26T06:53:33;94830.69;;;7.81;81.60
65800;BME280;52544;48.116;11.660;2023-03-26T06:55:59;94839.59;;;7.89;80.94
65800;BME280;52544;48.116;11.660;2023-03-26T06:58:25;94836.28;;;7.87;81.32
65800;BME280;52544;48.116;11.660;2023-03-26T07:00:54;94837.53;;;7.93;80.76
65800;BME280;52544;48.116;11.660;2023-03-26T07:03:20;94833.94;;;7.94;80.69
65800;BME280;52544;48.116;11.660;2023-03-26T07:05:46;94830.78;;;8.00;80.52
65800;BME280;52544;48.116;11.660;2023-03-26T07:08:11;94832.44;;;8.01;81.05
65800;BME280;52544;48.116;11.660;2023-03-26T07:10:37;94821.91;;;8.01;81.29
65800;BME280;52544;48.116;11.660;2023-03-26T07:13:02;94821.22;;;7.99;82.47
65800;BME280;52544;48.116;11.660;2023-03-26T07:15:28;94818.84;;;7.96;83.08
65800;BME280;52544;48.116;11.660;2023-03-26T07:17:53;94814.97;;;8.00;83.97
65800;BME280;52544;48.116;11.660;2023-03-26T07:20:19;94811.78;;;7.96;85.12
65800;BME280;52544;48.116;11.660;2023-03-26T07:22:45;94806.66;;;7.95;85.43
65800;BME280;52544;48.116;11.660;2023-03-26T07:25:12;94806.94;;;8.01;85.41
65800;BME280;52544;48.116;11.660;2023-03-26T07:30:49;94803.84;;;7.87;88.84
65800;BME280;52544;48.116;11.660;2023-03-26T07:33:44;94785.25;;;7.79;89.07
65800;BME280;52544;48.116;11.660;2023-03-26T07:36:49;94775.09;;;7.74;91.23
65800;BME280;52544;48.116;11.660;2023-03-26T07:39:38;94760.09;;;7.65;92.57
65800;BME280;52544;48.116;11.660;2023-03-26T07:42:26;94751.88;;;7.58;94.41
65800;BME280;52544;48.116;11.660;2023-03-26T07:47:40;94727.06;;;7.51;96.98
65800;BME280;52544;48.116;11.660;2023-03-26T07:50:08;94726.63;;;7.46;96.10
65800;BME280;52544;48.116;11.660;2023-03-26T07:52:38;94722.84;;;7.39;100.00
65800;BME280;52544;48.116;11.660;2023-03-26T07:55:05;94727.84;;;7.42;100.00
65800;BME280;52544;48.116;11.660;2023-03-26T08:03:09;94705.03;;;7.52;100.00
65800;BME280;52544;48.116;11.660;2023-03-26T08:05:49;94700.03;;;7.49;100.00
65800;BME280;52544;48.116;11.660;2023-03-26T08:08:47;94704.75;;;7.55;100.00
65800;BME280;52544;48.116;11.660;2023-03-26T08:30:22;94665.88;;;7.78;100.00
65800;BME280;52544;48.116;11.660;2023-03-26T08:32:54;94655.34;;;7.78;99.14
65800;BME280;52544;48.116;11.660;2023-03-26T08:35:20;94654.91;;;7.73;98.65
65800;BME280;52544;48.116;11.660;2023-03-26T08:37:46;94654.38;;;7.69;98.08
65800;BME280;52544;48.116;11.660;2023-03-26T08:40:17;94655.59;;;7.65;97.91
65800;BME280;52544;48.116;11.660;2023-03-26T08:46:00;94652.41;;;7.71;99.39
65800;BME280;52544;48.116;11.660;2023-03-26T08:57:43;94660.09;;;8.04;95.73
65800;BME280;52544;48.116;11.660;2023-03-26T09:02:56;94652.59;;;7.99;96.99
65800;BME280;52544;48.116;11.660;2023-03-26T09:05:36;94647.75;;;8.04;95.59
65800;BME280;52544;48.116;11.660;2023-03-26T09:24:51;94636.22;;;7.95;91.00
65800;BME280;52544;48.116;11.660;2023-03-26T09:36:56;94601.69;;;7.98;92.71
65800;BME280;52544;48.116;11.660;2023-03-26T09:39:34;94605.31;;;7.88;91.88
65800;BME280;52544;48.116;11.660;2023-03-26T09:55:37;94597.00;;;7.83;96.95
65800;BME280;52544;48.116;11.660;2023-03-26T10:10:06;94602.09;;;7.84;100.00
65800;BME280;52544;48.116;11.660;2023-03-26T10:12:35;94584.78;;;7.91;100.00
65800;BME280;52544;48.116;11.660;2023-03-26T10:20:36;94565.34;;;8.02;100.00
65800;BME280;52544;48.116;11.660;2023-03-26T10:23:28;94568.97;;;7.91;100.00
65800;BME280;52544;48.116;11.660;2023-03-26T10:29:02;94569.41;;;7.87;100.00
65800;BME280;52544;48.116;11.660;2023-03-26T10:31:45;94574.53;;;7.88;100.00
65800;BME280;52544;48.116;11.660;2023-03-26T10:40:04;94578.94;;;7.97;100.00
65800;BME280;52544;48.116;11.660;2023-03-26T10:56:02;94601.00;;;7.96;100.00
65800;BME280;52544;48.116;11.660;2023-03-26T10:58:31;94589.34;;;7.89;100.00
65800;BME280;52544;48.116;11.660;2023-03-26T11:03:51;94585.06;;;7.79;100.00
65800;BME280;52544;48.116;11.660;2023-03-26T11:09:20;94551.25;;;7.74;100.00
65800;BME280;52544;48.116;11.660;2023-03-26T11:12:21;94552.06;;;7.74;100.00
65800;BME280;52544;48.116;11.660;2023-03-26T11:15:36;94559.56;;;7.69;100.00
65800;BME280;52544;48.116;11.660;2023-03-26T11:17:57;94557.06;;;7.78;100.00
65800;BME280;52544;48.116;11.660;2023-03-26T11:20:37;94550.13;;;7.76;100.00
65800;BME280;52544;48.116;11.660;2023-03-26T11:23:35;94550.69;;;7.80;100.00
65800;BME280;52544;48.116;11.660;2023-03-26T11:34:03;94547.94;;;7.82;100.00
65800;BME280;52544;48.116;11.660;2023-03-26T11:36:34;94545.69;;;7.87;100.00
65800;BME280;52544;48.116;11.660;2023-03-26T11:39:04;94547.22;;;7.80;100.00
65800;BME280;52544;48.116;11.660;2023-03-26T11:41:33;94542.09;;;7.88;100.00
65800;BME280;52544;48.116;11.660;2023-03-26T11:44:24;94558.16;;;7.85;100.00
65800;BME280;52544;48.116;11.660;2023-03-26T11:46:56;94549.56;;;7.83;100.00
65800;BME280;52544;48.116;11.660;2023-03-26T11:49:25;94550.41;;;7.83;100.00
65800;BME280;52544;48.116;11.660;2023-03-26T11:51:52;94553.31;;;7.80;100.00
65800;BME280;52544;48.116;11.660;2023-03-26T11:54:18;94551.25;;;7.74;100.00
65800;BME280;52544;48.116;11.660;2023-03-26T11:57:00;94544.44;;;7.71;100.00
65800;BME280;52544;48.116;11.660;2023-03-26T11:59:30;94558.44;;;7.62;100.00
65800;BME280;52544;48.116;11.660;2023-03-26T12:04:40;94541.25;;;7.58;100.00
65800;BME280;52544;48.116;11.660;2023-03-26T12:10:00;94540.97;;;7.71;100.00
65800;BME280;52544;48.116;11.660;2023-03-26T12:12:37;94531.28;;;7.71;100.00
65800;BME280;52544;48.116;11.660;2023-03-26T12:15:12;94513.81;;;7.70;100.00
65800;BME280;52544;48.116;11.660;2023-03-26T12:17:38;94515.75;;;7.78;100.00
65800;BME280;52544;48.116;11.660;2023-03-26T12:22:50;94522.09;;;8.05;100.00
65800;BME280;52544;48.116;11.660;2023-03-26T12:25:23;94519.31;;;8.16;100.00
65800;BME280;52544;48.116;11.660;2023-03-26T12:30:29;94523.56;;;8.46;100.00
65800;BME280;52544;48.116;11.660;2023-03-26T12:33:00;94522.81;;;8.54;100.00
65800;BME280;52544;48.116;11.660;2023-03-26T12:35:30;94501.56;;;8.65;100.00
65800;BME280;52544;48.116;11.660;2023-03-26T12:40:38;94514.06;;;8.63;100.00
65800;BME280;52544;48.116;11.660;2023-03-26T12:43:20;94510.00;;;8.68;100.00
65800;BME280;52544;48.116;11.660;2023-03-26T12:45:53;94507.53;;;8.67;100.00
65800;BME280;52544;48.116;11.660;2023-03-26T12:48:19;94498.84;;;8.74;100.00
65800;BME280;52544;48.116;11.660;2023-03-26T12:59:04;94491.88;;;8.83;100.00
65800;BME280;52544;48.116;11.660;2023-03-26T13:01:52;94478.00;;;8.81;100.00
65800;BME280;52544;48.116;11.660;2023-03-26T13:04:29;94496.03;;;8.86;100.00
65800;BME280;52544;48.116;11.660;2023-03-26T13:07:16;94488.81;;;8.88;100.00
65800;BME280;52544;48.116;11.660;2023-03-26T13:15:25;94471.28;;;8.96;98.50
65800;BME280;52544;48.116;11.660;2023-03-26T13:20:48;94469.31;;;8.98;96.88
65800;BME280;52544;48.116;11.660;2023-03-26T13:23:37;94478.75;;;9.01;97.37
65800;BME280;52544;48.116;11.660;2023-03-26T13:29:30;94469.84;;;9.02;96.22
65800;BME280;52544;48.116;11.660;2023-03-26T13:38:08;94473.47;;;9.01;97.91
65800;BME280;52544;48.116;11.660;2023-03-26T13:45:48;94472.78;;;8.99;95.33
65800;BME280;52544;48.116;11.660;2023-03-26T13:48:19;94460.94;;;9.03;95.78
65800;BME280;52544;48.116;11.660;2023-03-26T13:50:59;94464.94;;;9.07;95.90
65800;BME280;52544;48.116;11.660;2023-03-26T13:53:49;94457.03;;;9.07;94.50
65800;BME280;52544;48.116;11.660;2023-03-26T13:56:20;94454.22;;;9.09;95.04
65800;BME280;52544;48.116;11.660;2023-03-26T13:59:16;94446.84;;;9.12;94.01
65800;BME280;52544;48.116;11.660;2023-03-26T14:01:57;94435.25;;;9.05;95.02
65800;BME280;52544;48.116;11.660;2023-03-26T14:04:29;94429.19;;;9.13;94.86
65800;BME280;52544;48.116;11.660;2023-03-26T14:07:13;94427.25;;;9.15;94.32
65800;BME280;52544;48.116;11.660;2023-03-26T14:15:19;94405.16;;;9.16;90.31
65800;BME280;52544;48.116;11.660;2023-03-26T14:23:46;94422.72;;;9.25;88.37
65800;BME280;52544;48.116;11.660;2023-03-26T14:29:36;94424.81;;;9.04;83.72
65800;BME280;52544;48.116;11.660;2023-03-26T14:46:06;94397.59;;;8.40;83.85
65800;BME280;52544;48.116;11.660;2023-03-26T14:53:49;94389.09;;;8.46;87.07
65800;BME280;52544;48.116;11.660;2023-03-26T15:00:18;94395.66;;;8.42;88.60
65800;BME280;52544;48.116;11.660;2023-03-26T15:26:17;94356.97;;;8.96;88.38
65800;BME280;52544;48.116;11.660;2023-03-26T15:37:24;94355.38;;;9.03;86.76
65800;BME280;52544;48.116;11.660;2023-03-26T15:43:06;94359.53;;;9.06;86.60
65800;BME280;52544;48.116;11.660;2023-03-26T15:56:04;94362.09;;;8.97;86.17
65800;BME280;52544;48.116;11.660;2023-03-26T15:58:41;94373.31;;;8.99;86.03
65800;BME280;52544;48.116;11.660;2023-03-26T16:06:55;94381.69;;;8.95;74.21
65800;BME280;52544;48.116;11.660;2023-03-26T16:14:46;94347.47;;;8.67;68.31
65800;BME280;52544;48.116;11.660;2023-03-26T16:17:16;94361.31;;;8.69;66.76
65800;BME280;52544;48.116;11.660;2023-03-26T16:22:38;94369.53;;;8.66;68.17
65800;BME280;52544;48.116;11.660;2023-03-26T16:25:23;94369.38;;;8.50;71.86
65800;BME280;52544;48.116;11.660;2023-03-26T16:28:07;94344.94;;;8.20;80.02
65800;BME280;52544;48.116;11.660;2023-03-26T16:30:34;94335.19;;;8.03;81.90
65800;BME280;52544;48.116;11.660;2023-03-26T16:33:11;94348.72;;;7.81;82.80
65800;BME280;52544;48.116;11.660;2023-03-26T16:35:48;94350.94;;;7.75;82.89
65800;BME280;52544;48.116;11.660;2023-03-26T16:38:24;94347.09;;;7.70;83.81
65800;BME280;52544;48.116;11.660;2023-03-26T16:41:01;94337.78;;;7.75;82.34
65800;BME280;52544;48.116;11.660;2023-03-26T16:43:42;94326.97;;;7.79;81.10
65800;BME280;52544;48.116;11.660;2023-03-26T16:52:43;94323.94;;;7.73;82.45
65800;BME280;52544;48.116;11.660;2023-03-26T16:58:15;94321.69;;;7.79;82.08
65800;BME280;52544;48.116;11.660;2023-03-26T17:03:42;94322.75;;;7.86;81.43
65800;BME280;52544;48.116;11.660;2023-03-26T17:11:45;94335.16;;;7.75;83.65
65800;BME280;52544;48.116;11.660;2023-03-26T17:17:08;94332.78;;;7.72;84.55
65800;BME280;52544;48.116;11.660;2023-03-26T17:19:57;94330.28;;;7.81;83.79
65800;BME280;52544;48.116;11.660;2023-03-26T17:22:41;94326.53;;;7.83;83.55
65800;BME280;52544;48.116;11.660;2023-03-26T17:41:07;94347.56;;;7.93;79.70
65800;BME280;52544;48.116;11.660;2023-03-26T17:43:48;94351.16;;;7.92;79.76
65800;BME280;52544;48.116;11.660;2023-03-26T17:48:56;94386.19;;;8.02;79.49
65800;BME280;52544;48.116;11.660;2023-03-26T17:56:50;94405.91;;;7.98;80.64
65800;BME280;52544;48.116;11.660;2023-03-26T17:59:21;94415.91;;;7.94;81.56
65800;BME280;52544;48.116;11.660;2023-03-26T18:01:54;94405.13;;;7.88;82.57
65800;BME280;52544;48.116;11.660;2023-03-26T18:04:32;94415.94;;;7.85;83.11
65800;BME280;52544;48.116;11.660;2023-03-26T18:07:06;94440.75;;;7.82;83.50
65800;BME280;52544;48.116;11.660;2023-03-26T18:18:01;94434.88;;;7.32;86.64
65800;BME280;52544;48.116;11.660;2023-03-26T18:20:34;94440.25;;;7.11;86.35
65800;BME280;52544;48.116;11.660;2023-03-26T18:23:07;94412.28;;;7.00;85.92
65800;BME280;52544;48.116;11.660;2023-03-26T18:25:34;94423.06;;;6.78;86.86
65800;BME280;52544;48.116;11.660;2023-03-26T18:28:00;94430.38;;;6.64;87.24
65800;BME280;52544;48.116;11.660;2023-03-26T18:30:28;94432.00;;;6.56;88.55
65800;BME280;52544;48.116;11.660;2023-03-26T18:33:03;94429.50;;;6.54;88.59
65800;BME280;52544;48.116;11.660;2023-03-26T18:35:40;94442.50;;;6.46;88.32
65800;BME280;52544;48.116;11.660;2023-03-26T18:38:12;94448.44;;;6.38;90.02
65800;BME280;52544;48.116;11.660;2023-03-26T18:40:40;94453.09;;;6.35;91.19
65800;BME280;52544;48.116;11.660;2023-03-26T18:43:14;94449.22;;;6.29;92.23
65800;BME280;52544;48.116;11.660;2023-03-26T18:45:40;94440.47;;;6.29;91.13
65800;BME280;52544;48.116;11.660;2023-03-26T18:48:26;94418.34;;;6.21;91.32
65800;BME280;52544;48.116;11.660;2023-03-26T18:50:59;94435.47;;;6.16;91.85
65800;BME280;52544;48.116;11.660;2023-03-26T18:53:28;94431.31;;;6.13;91.83
65800;BME280;52544;48.116;11.660;2023-03-26T18:55:55;94432.84;;;6.16;91.36
65800;BME280;52544;48.116;11.660;2023-03-26T19:00:51;94427.53;;;6.06;91.45
65800;BME280;52544;48.116;11.660;2023-03-26T19:03:20;94413.44;;;6.07;91.47
65800;BME280;52544;48.116;11.660;2023-03-26T19:05:47;94410.81;;;6.07;91.18
65800;BME280;52544;48.116;11.660;2023-03-26T19:08:15;94410.56;;;6.10;90.72
65800;BME280;52544;48.116;11.660;2023-03-26T19:10:41;94415.13;;;6.08;90.97
65800;BME280;52544;48.116;11.660;2023-03-26T19:13:12;94407.75;;;6.02;91.07
65800;BME280;52544;48.116;11.660;2023-03-26T19:15:39;94404.56;;;5.98;91.39